Time;durP1;ratioP1;P1;durP2;ratioP2;P2;SDS_P1;SDS_P2;PMS_P1;PMS_P2;Temp;Humidity;BMP_temperature;BMP_pressure;BME280_temperature;BME280_humidity;BME280_pressure;Samples;Min_cycle;Max_cycle;Signal;HPM_P1;HPM_P2
2021/08/29 00:00:52;;;;;;;3.25;2.95;;;14.90;99.90;;;;;;5045520;28;20285;-73
2021/08/29 00:03:19;;;;;;;4.13;3.27;;;14.90;99.90;;;;;;5049687;28;20214;-73
2021/08/29 00:05:46;;;;;;;4.70;3.07;;;14.90;99.90;;;;;;5050181;28;20207;-74
2021/08/29 00:08:12;;;;;;;3.10;2.80;;;14.90;99.90;;;;;;5052311;28;20195;-73
2021/08/29 00:10:39;;;;;;;3.53;2.73;;;14.90;99.90;;;;;;5053542;28;20290;-73
2021/08/29 00:13:06;;;;;;;6.38;2.78;;;14.90;99.90;;;;;;5051753;28;20210;-73
2021/08/29 00:15:33;;;;;;;3.10;2.80;;;14.90;99.90;;;;;;5053558;28;20211;-74
2021/08/29 00:18:02;;;;;;;3.83;2.90;;;14.90;99.90;;;;;;5048784;28;20191;-73
2021/08/29 00:20:28;;;;;;;3.47;3.00;;;14.90;99.90;;;;;;5050715;28;20675;-73
2021/08/29 00:22:55;;;;;;;3.97;3.10;;;14.90;99.90;;;;;;5061509;28;20205;-73
2021/08/29 00:25:22;;;;;;;4.10;3.53;;;14.90;99.90;;;;;;5044731;28;20677;-73
2021/08/29 00:27:49;;;;;;;4.77;2.90;;;14.90;99.90;;;;;;5049260;28;20237;-73
2021/08/29 00:30:16;;;;;;;4.80;3.80;;;14.90;99.90;;;;;;5044138;28;20681;-73
2021/08/29 00:32:42;;;;;;;3.83;3.47;;;14.90;99.90;;;;;;5057913;28;20210;-73
2021/08/29 00:35:11;;;;;;;4.38;3.70;;;14.80;99.90;;;;;;5048791;28;20675;-74
2021/08/29 00:37:38;;;;;;;5.07;3.40;;;14.80;99.90;;;;;;5043957;28;20230;-74
2021/08/29 00:40:06;;;;;;;4.77;3.60;;;14.90;99.90;;;;;;5050729;28;20559;-73
2021/08/29 00:42:33;;;;;;;4.88;3.78;;;14.90;99.90;;;;;;5053659;28;20211;-74
2021/08/29 00:45:00;;;;;;;4.43;4.03;;;14.90;99.90;;;;;;5055848;28;20203;-73
2021/08/29 00:47:27;;;;;;;5.55;3.45;;;14.80;99.90;;;;;;5047530;28;20219;-74
2021/08/29 00:49:54;;;;;;;4.55;3.83;;;14.90;99.90;;;;;;5039827;28;20202;-74
2021/08/29 00:52:22;;;;;;;4.65;3.65;;;14.80;99.90;;;;;;5039883;28;20202;-73
2021/08/29 00:54:49;;;;;;;3.97;3.58;;;14.80;99.90;;;;;;5043930;28;20202;-73
2021/08/29 00:57:16;;;;;;;5.78;3.53;;;14.80;99.90;;;;;;5044894;28;20210;-74
2021/08/29 00:59:43;;;;;;;7.20;3.57;;;14.80;99.90;;;;;;5041045;28;20205;-76
2021/08/29 01:02:12;;;;;;;5.20;4.00;;;14.80;99.90;;;;;;5049691;28;20680;-76
2021/08/29 01:04:47;;;;;;;5.15;3.80;;;14.80;99.90;;;;;;5042284;28;20203;-76
2021/08/29 01:07:22;;;;;;;4.97;3.50;;;14.80;99.90;;;;;;5046365;28;20215;-76
2021/08/29 01:09:58;;;;;;;5.90;3.77;;;14.80;99.90;;;;;;5045073;28;20207;-76
2021/08/29 01:12:27;;;;;;;7.80;4.53;;;14.80;99.90;;;;;;5035369;28;20811;-76
2021/08/29 01:14:56;;;;;;;4.50;3.80;;;14.80;99.90;;;;;;5041748;28;20207;-76
2021/08/29 01:17:28;;;;;;;6.50;5.00;;;14.80;99.90;;;;;;5042366;28;20210;-76
2021/08/29 01:20:02;;;;;;;6.35;4.35;;;14.70;99.90;;;;;;5041737;28;20222;-76
2021/08/29 01:22:32;;;;;;;5.72;4.53;;;14.70;99.90;;;;;;5043456;28;20570;-76
2021/08/29 01:25:00;;;;;;;10.38;5.10;;;14.70;99.90;;;;;;5042804;28;20677;-76
2021/08/29 01:27:35;;;;;;;7.17;4.53;;;14.70;99.90;;;;;;5043149;28;21268;-76
2021/08/29 01:30:05;;;;;;;7.82;5.15;;;14.80;99.90;;;;;;5042815;28;20641;-76
2021/08/29 01:32:33;;;;;;;8.57;5.07;;;14.70;99.90;;;;;;5036103;28;20203;-76
2021/08/29 01:35:01;;;;;;;7.37;5.33;;;14.70;99.90;;;;;;5041014;28;20207;-76
2021/08/29 01:37:29;;;;;;;5.97;5.10;;;14.70;99.90;;;;;;5041490;28;20670;-76
2021/08/29 01:39:57;;;;;;;8.17;5.27;;;14.70;99.90;;;;;;5044019;28;20213;-76
2021/08/29 01:42:24;;;;;;;10.07;5.43;;;14.70;99.90;;;;;;5047621;28;20210;-76
2021/08/29 01:44:51;;;;;;;9.23;5.37;;;14.70;99.90;;;;;;5050941;28;20202;-76
2021/08/29 01:47:19;;;;;;;8.40;5.50;;;14.70;99.90;;;;;;5050252;28;20690;-76
2021/08/29 01:49:47;;;;;;;8.27;5.20;;;14.70;99.90;;;;;;5045534;28;20199;-76
2021/08/29 01:52:14;;;;;;;7.72;5.30;;;14.70;99.90;;;;;;5047153;28;20199;-76
2021/08/29 01:54:41;;;;;;;9.07;5.30;;;14.80;99.90;;;;;;5055063;28;20205;-76
2021/08/29 01:57:12;;;;;;;8.20;5.30;;;14.80;99.90;;;;;;5044796;28;20204;-76
2021/08/29 01:59:40;;;;;;;7.63;5.72;;;14.80;99.90;;;;;;5045574;28;20210;-77
2021/08/29 02:02:07;;;;;;;10.57;5.82;;;14.80;99.90;;;;;;5045631;28;20216;-76
2021/08/29 02:04:36;;;;;;;10.05;5.85;;;14.80;99.90;;;;;;5047235;28;20206;-76
2021/08/29 02:07:27;;;;;;;8.43;5.20;;;14.80;99.90;;;;;;5049726;28;20241;-76
2021/08/29 02:10:00;;;;;;;8.32;5.75;;;14.80;99.90;;;;;;5040322;28;20213;-76
2021/08/29 02:12:31;;;;;;;8.10;5.57;;;14.80;99.90;;;;;;5052541;28;20199;-76
2021/08/29 02:15:03;;;;;;;8.53;6.07;;;14.70;99.90;;;;;;5047617;28;20207;-76
2021/08/29 02:17:31;;;;;;;9.97;7.07;;;14.80;99.90;;;;;;5050713;28;20203;-76
2021/08/29 02:20:04;;;;;;;9.40;6.13;;;14.70;99.90;;;;;;5051005;28;20203;-76
2021/08/29 02:22:33;;;;;;;9.90;6.20;;;14.80;99.90;;;;;;5048053;28;20203;-76
2021/08/29 02:25:02;;;;;;;9.67;7.03;;;14.80;99.90;;;;;;5053608;28;20577;-76
2021/08/29 02:27:29;;;;;;;9.60;6.95;;;14.80;99.90;;;;;;5046161;28;20584;-76
2021/08/29 02:29:57;;;;;;;10.48;7.32;;;14.80;99.90;;;;;;5054411;28;20217;-76
2021/08/29 02:32:24;;;;;;;7.70;6.27;;;14.70;99.90;;;;;;5051698;28;20207;-76
2021/08/29 02:34:51;;;;;;;8.73;6.35;;;14.70;99.90;;;;;;5048722;28;20210;-76
2021/08/29 02:37:20;;;;;;;8.07;6.38;;;14.80;99.90;;;;;;5052024;28;20661;-76
2021/08/29 02:39:47;;;;;;;7.77;6.20;;;14.80;99.90;;;;;;5052109;28;20800;-76
2021/08/29 02:42:15;;;;;;;8.97;6.60;;;14.70;99.90;;;;;;5045558;28;20211;-77
2021/08/29 02:44:44;;;;;;;8.30;6.80;;;14.70;99.90;;;;;;5051139;28;20210;-76
2021/08/29 02:47:13;;;;;;;7.30;6.20;;;14.70;99.90;;;;;;5048581;28;20223;-76
2021/08/29 02:49:40;;;;;;;7.78;6.20;;;14.80;99.90;;;;;;5042772;28;20688;-76
2021/08/29 02:52:08;;;;;;;10.27;7.10;;;14.70;99.90;;;;;;5043173;28;20198;-76
2021/08/29 02:54:41;;;;;;;9.15;6.95;;;14.70;99.90;;;;;;5048091;28;20680;-76
2021/08/29 02:57:11;;;;;;;8.05;6.38;;;14.70;99.90;;;;;;5051012;28;20215;-76
2021/08/29 02:59:39;;;;;;;10.23;6.97;;;14.80;99.90;;;;;;5045159;28;20196;-76
2021/08/29 03:02:07;;;;;;;8.87;6.70;;;14.80;99.90;;;;;;5041838;28;20204;-76
2021/08/29 03:04:34;;;;;;;10.23;6.90;;;14.80;99.90;;;;;;5046773;28;20202;-76
2021/08/29 03:07:02;;;;;;;10.40;7.40;;;14.80;99.90;;;;;;5047590;28;20233;-76
2021/08/29 03:09:33;;;;;;;11.63;7.73;;;14.80;99.90;;;;;;5045178;28;20199;-76
2021/08/29 03:12:02;;;;;;;11.00;8.03;;;14.80;99.90;;;;;;5045373;28;20207;-76
2021/08/29 03:14:29;;;;;;;13.13;7.85;;;14.70;99.90;;;;;;5046790;28;20214;-76
2021/08/29 03:16:56;;;;;;;12.20;7.87;;;14.70;99.90;;;;;;5044446;28;20202;-76
2021/08/29 03:19:23;;;;;;;10.83;8.00;;;14.80;99.90;;;;;;5042941;28;20204;-76
2021/08/29 03:21:50;;;;;;;11.60;7.80;;;14.70;99.90;;;;;;5045183;28;20207;-76
2021/08/29 03:24:17;;;;;;;12.43;8.70;;;14.80;99.90;;;;;;5039595;28;20640;-76
2021/08/29 03:26:45;;;;;;;12.33;9.20;;;14.70;99.90;;;;;;5040102;28;20230;-76
2021/08/29 03:29:14;;;;;;;13.13;9.30;;;14.70;99.90;;;;;;5045336;28;20203;-77
2021/08/29 03:31:41;;;;;;;12.57;8.57;;;14.70;99.90;;;;;;5050276;28;20649;-76
2021/08/29 03:34:12;;;;;;;15.10;9.38;;;14.80;99.90;;;;;;5050062;28;20194;-76
2021/08/29 03:36:42;;;;;;;12.67;8.67;;;14.80;99.90;;;;;;5061576;28;20572;-76
2021/08/29 03:39:11;;;;;;;14.30;9.05;;;14.80;99.90;;;;;;5052886;28;20634;-76
2021/08/29 03:41:39;;;;;;;10.82;7.82;;;14.80;99.90;;;;;;5050772;28;20210;-76
2021/08/29 03:44:08;;;;;;;12.00;8.68;;;14.80;99.90;;;;;;5052089;28;20583;-76
2021/08/29 03:46:36;;;;;;;11.85;8.30;;;14.80;99.90;;;;;;5056808;28;20561;-76
2021/08/29 03:49:04;;;;;;;11.07;7.72;;;14.80;99.90;;;;;;5050131;28;20223;-76
2021/08/29 03:51:32;;;;;;;16.33;11.10;;;14.80;99.90;;;;;;5051629;28;20209;-77
2021/08/29 03:54:00;;;;;;;14.70;8.70;;;14.80;99.90;;;;;;5051481;28;20203;-76
2021/08/29 03:56:28;;;;;;;11.68;7.63;;;14.70;99.90;;;;;;5053173;28;20218;-76
2021/08/29 03:58:56;;;;;;;12.93;8.38;;;14.70;99.90;;;;;;5051412;28;20203;-76
2021/08/29 04:01:24;;;;;;;11.57;8.17;;;14.70;99.90;;;;;;5046980;28;20205;-77
2021/08/29 04:03:53;;;;;;;12.45;8.68;;;14.80;99.90;;;;;;5044824;28;20590;-76
2021/08/29 04:06:20;;;;;;;11.77;8.30;;;14.70;99.90;;;;;;5052112;28;20663;-76
2021/08/29 04:08:50;;;;;;;11.10;7.73;;;14.70;99.90;;;;;;5051333;28;20234;-77
2021/08/29 04:11:23;;;;;;;11.15;8.68;;;14.80;99.90;;;;;;5055178;28;20763;-76
2021/08/29 04:13:50;;;;;;;11.23;7.53;;;14.70;99.90;;;;;;5189123;23;20289;-74
2021/08/29 04:16:18;;;;;;;11.70;8.03;;;14.70;99.90;;;;;;5030687;28;20200;-74
2021/08/29 04:18:47;;;;;;;10.15;7.45;;;14.70;99.90;;;;;;5045606;28;20203;-74
2021/08/29 04:21:18;;;;;;;11.20;7.05;;;14.70;99.90;;;;;;5040188;28;20221;-74
2021/08/29 04:23:45;;;;;;;10.18;6.45;;;14.80;99.90;;;;;;5044169;28;20553;-74
2021/08/29 04:26:13;;;;;;;8.67;6.37;;;14.70;99.90;;;;;;5037794;28;20212;-74
2021/08/29 04:28:40;;;;;;;8.30;5.90;;;14.70;99.90;;;;;;5037664;28;20219;-74
2021/08/29 04:31:10;;;;;;;5.25;4.63;;;14.70;99.90;;;;;;5035062;28;20657;-74
2021/08/29 04:33:37;;;;;;;7.45;5.07;;;14.60;99.90;;;;;;5040236;28;20217;-74
2021/08/29 04:36:04;;;;;;;5.22;3.90;;;14.70;99.90;;;;;;5033433;28;20199;-74
2021/08/29 04:38:33;;;;;;;5.10;4.30;;;14.70;99.90;;;;;;5047451;28;20211;-74
2021/08/29 04:41:00;;;;;;;5.00;4.22;;;14.60;99.90;;;;;;5030858;28;20283;-71
2021/08/29 04:43:26;;;;;;;5.13;4.27;;;14.70;99.90;;;;;;5050864;28;20206;-71
2021/08/29 04:45:53;;;;;;;5.28;4.10;;;14.60;99.90;;;;;;5044990;28;20198;-71
2021/08/29 04:48:20;;;;;;;4.20;3.80;;;14.70;99.90;;;;;;5048254;28;20218;-71
2021/08/29 04:50:47;;;;;;;4.13;3.67;;;14.70;99.90;;;;;;5048694;28;20205;-72
2021/08/29 04:53:14;;;;;;;4.10;3.53;;;14.70;99.90;;;;;;5044101;28;20195;-72
2021/08/29 04:55:42;;;;;;;3.83;3.43;;;14.60;99.90;;;;;;5032100;28;20209;-71
2021/08/29 04:58:10;;;;;;;6.25;3.67;;;14.60;99.90;;;;;;5047698;28;20200;-71
2021/08/29 05:00:37;;;;;;;3.42;3.05;;;14.60;99.90;;;;;;5048972;28;20581;-71
2021/08/29 05:03:04;;;;;;;3.90;3.50;;;14.50;99.90;;;;;;5038996;28;20646;-71
2021/08/29 05:05:31;;;;;;;4.13;3.07;;;14.60;99.90;;;;;;5041849;28;20300;-71
2021/08/29 05:07:58;;;;;;;3.75;2.97;;;14.60;99.90;;;;;;5042894;28;20240;-71
2021/08/29 05:10:24;;;;;;;5.03;3.43;;;14.60;99.90;;;;;;5042431;28;20207;-71
2021/08/29 05:12:53;;;;;;;3.38;3.10;;;14.60;99.90;;;;;;5047381;28;20203;-71
2021/08/29 05:15:20;;;;;;;3.80;3.40;;;14.60;99.90;;;;;;5043583;28;20953;-72
2021/08/29 05:17:47;;;;;;;4.03;3.63;;;14.60;99.90;;;;;;5045534;28;20218;-72
2021/08/29 05:20:14;;;;;;;4.97;3.67;;;14.70;99.90;;;;;;5048738;28;20209;-71
2021/08/29 05:22:41;;;;;;;3.40;3.10;;;14.70;99.90;;;;;;5044299;28;20687;-72
2021/08/29 05:25:09;;;;;;;4.45;3.90;;;14.70;99.90;;;;;;5040629;28;20545;-71
2021/08/29 05:27:36;;;;;;;3.35;3.03;;;14.70;99.90;;;;;;5045413;28;20203;-72
2021/08/29 05:30:06;;;;;;;3.60;3.17;;;14.70;99.90;;;;;;5042564;28;20204;-72
2021/08/29 05:32:32;;;;;;;3.70;3.30;;;14.70;99.90;;;;;;5049498;28;20223;-72
2021/08/29 05:34:59;;;;;;;3.77;3.17;;;14.70;99.90;;;;;;5047678;28;20209;-72
2021/08/29 05:37:26;;;;;;;3.93;3.30;;;14.70;99.90;;;;;;5048516;28;20206;-72
2021/08/29 05:39:53;;;;;;;3.30;3.00;;;14.70;99.90;;;;;;5046654;28;20206;-72
2021/08/29 05:42:20;;;;;;;3.40;3.10;;;14.70;99.90;;;;;;5041702;28;20200;-71
2021/08/29 05:44:47;;;;;;;2.95;2.70;;;14.70;99.90;;;;;;5045687;28;20215;-72
2021/08/29 05:47:15;;;;;;;3.15;2.85;;;14.70;99.90;;;;;;5040161;28;20199;-71
2021/08/29 05:49:42;;;;;;;3.63;2.50;;;14.70;99.90;;;;;;5042152;28;20226;-72
2021/08/29 05:52:09;;;;;;;3.10;2.80;;;14.70;99.90;;;;;;5040410;28;20203;-71
2021/08/29 05:54:35;;;;;;;4.83;3.17;;;14.70;99.90;;;;;;5041975;28;20199;-72
2021/08/29 05:57:02;;;;;;;3.08;2.80;;;14.70;99.90;;;;;;5044873;28;20209;-72
2021/08/29 05:59:29;;;;;;;3.30;2.80;;;14.80;99.90;;;;;;5045913;28;20581;-71
2021/08/29 06:01:56;;;;;;;3.20;2.90;;;14.80;99.90;;;;;;5049382;28;20203;-72
2021/08/29 06:04:24;;;;;;;3.38;2.55;;;14.80;99.90;;;;;;5042320;28;20213;-71
2021/08/29 06:06:51;;;;;;;4.47;3.43;;;14.80;99.90;;;;;;5045738;28;20210;-72
2021/08/29 06:09:18;;;;;;;3.40;3.10;;;14.80;99.90;;;;;;5043225;28;20234;-71
2021/08/29 06:11:45;;;;;;;3.10;2.80;;;14.80;99.90;;;;;;5043340;28;20208;-72
2021/08/29 06:14:11;;;;;;;3.83;2.93;;;14.80;99.90;;;;;;5046000;28;20234;-72
2021/08/29 06:16:38;;;;;;;2.93;2.63;;;14.80;99.90;;;;;;5047213;28;20202;-71
2021/08/29 06:19:05;;;;;;;3.40;2.90;;;14.80;99.90;;;;;;5046330;28;20558;-72
2021/08/29 06:21:33;;;;;;;3.20;2.70;;;14.80;99.90;;;;;;5045532;28;20629;-71
2021/08/29 06:24:00;;;;;;;4.17;3.10;;;14.80;99.90;;;;;;5048748;28;20199;-72
2021/08/29 06:26:27;;;;;;;3.30;3.00;;;14.90;99.90;;;;;;5043699;28;20206;-72
2021/08/29 06:28:54;;;;;;;3.23;2.93;;;14.90;99.90;;;;;;5045683;28;20225;-72
2021/08/29 06:31:21;;;;;;;3.33;3.00;;;14.90;99.90;;;;;;5048449;28;20218;-71
2021/08/29 06:33:47;;;;;;;3.85;3.10;;;14.80;99.90;;;;;;5046391;28;20207;-72
2021/08/29 06:36:14;;;;;;;3.63;3.03;;;14.90;99.90;;;;;;5048071;28;20201;-72
2021/08/29 06:38:42;;;;;;;4.10;3.70;;;14.90;99.90;;;;;;5043785;28;20202;-72
2021/08/29 06:41:09;;;;;;;4.50;3.13;;;14.90;99.90;;;;;;5041702;28;20541;-71
2021/08/29 06:43:36;;;;;;;3.47;3.03;;;14.80;99.90;;;;;;5041460;28;20214;-71
2021/08/29 06:46:03;;;;;;;4.07;3.40;;;14.80;99.90;;;;;;5049725;28;20203;-72
2021/08/29 06:48:30;;;;;;;3.17;2.90;;;14.90;99.90;;;;;;5038760;28;20614;-72
2021/08/29 06:50:57;;;;;;;3.93;3.53;;;14.90;99.90;;;;;;5049048;28;20203;-71
2021/08/29 06:53:23;;;;;;;4.47;3.30;;;14.90;99.90;;;;;;5045148;28;20205;-72
2021/08/29 06:55:52;;;;;;;3.83;3.07;;;14.90;99.90;;;;;;5047460;28;20570;-71
2021/08/29 06:58:18;;;;;;;3.75;3.40;;;15.00;99.90;;;;;;5042656;28;20233;-72
2021/08/29 07:00:45;;;;;;;5.07;3.63;;;14.90;99.90;;;;;;5045697;28;20203;-71
2021/08/29 07:03:12;;;;;;;7.90;6.77;;;14.90;99.90;;;;;;5045772;28;20201;-71
2021/08/29 07:05:39;;;;;;;4.97;4.00;;;14.90;99.90;;;;;;5046373;28;20203;-72
2021/08/29 07:08:06;;;;;;;4.65;3.90;;;14.90;99.90;;;;;;5044206;28;20581;-71
2021/08/29 07:10:33;;;;;;;6.25;4.13;;;14.80;99.90;;;;;;5043185;28;20214;-72
2021/08/29 07:13:01;;;;;;;5.47;4.07;;;14.90;99.90;;;;;;5042453;28;20578;-71
2021/08/29 07:15:28;;;;;;;4.03;3.63;;;14.80;99.90;;;;;;5047089;28;20214;-72
2021/08/29 07:17:54;;;;;;;5.32;3.80;;;14.90;99.90;;;;;;5045654;28;20289;-71
2021/08/29 07:20:21;;;;;;;4.43;3.92;;;14.90;99.90;;;;;;5048770;28;20199;-71
2021/08/29 07:22:48;;;;;;;5.10;4.17;;;14.90;99.90;;;;;;5045735;28;20203;-71
2021/08/29 07:25:15;;;;;;;6.97;4.15;;;15.00;99.90;;;;;;5047097;28;20559;-71
2021/08/29 07:27:42;;;;;;;5.70;3.83;;;15.00;99.90;;;;;;5045089;28;20195;-72
2021/08/29 07:30:11;;;;;;;5.13;3.85;;;14.90;99.90;;;;;;5042651;28;20800;-72
2021/08/29 07:32:38;;;;;;;6.97;3.80;;;14.90;99.90;;;;;;5041673;28;20213;-71
2021/08/29 07:35:06;;;;;;;5.70;4.10;;;15.00;99.90;;;;;;5035387;28;20310;-71
2021/08/29 07:37:32;;;;;;;5.95;4.07;;;14.90;99.90;;;;;;5039020;28;20559;-71
2021/08/29 07:39:59;;;;;;;5.30;3.43;;;15.00;99.90;;;;;;5040811;28;20196;-72
2021/08/29 07:42:26;;;;;;;4.45;3.53;;;14.90;99.90;;;;;;5041116;28;20206;-71
2021/08/29 07:44:53;;;;;;;3.93;3.30;;;14.90;99.90;;;;;;5044483;28;20724;-72
2021/08/29 07:47:22;;;;;;;4.35;3.50;;;15.10;99.90;;;;;;5040494;28;20203;-71
2021/08/29 07:49:49;;;;;;;3.77;3.10;;;15.00;99.90;;;;;;5041385;28;20238;-71
2021/08/29 07:52:16;;;;;;;3.42;3.13;;;15.00;99.90;;;;;;5044100;28;20206;-72
2021/08/29 07:54:43;;;;;;;4.38;3.95;;;15.00;99.90;;;;;;5040696;28;20576;-72
2021/08/29 07:57:10;;;;;;;4.13;3.50;;;15.00;99.90;;;;;;5036559;28;20203;-72
2021/08/29 07:59:37;;;;;;;4.20;3.50;;;15.00;99.90;;;;;;5042015;28;20803;-72
2021/08/29 08:02:04;;;;;;;3.40;3.10;;;15.00;99.90;;;;;;5040182;28;20203;-72
2021/08/29 08:04:32;;;;;;;3.63;3.15;;;15.10;99.90;;;;;;5044342;28;20606;-72
2021/08/29 08:06:59;;;;;;;3.53;3.10;;;15.10;99.90;;;;;;5044905;28;20199;-72
2021/08/29 08:09:26;;;;;;;3.47;3.17;;;15.10;99.90;;;;;;5041666;28;20237;-71
2021/08/29 08:11:53;;;;;;;6.00;3.08;;;15.20;99.90;;;;;;5041826;28;20213;-72
2021/08/29 08:14:20;;;;;;;3.10;2.80;;;15.20;99.90;;;;;;5047944;28;20675;-71
2021/08/29 08:16:46;;;;;;;3.40;2.95;;;15.20;99.90;;;;;;5044990;28;20214;-71
2021/08/29 08:19:13;;;;;;;3.60;2.97;;;15.20;99.90;;;;;;5043407;28;20195;-72
2021/08/29 08:21:41;;;;;;;3.75;2.75;;;15.20;99.90;;;;;;5046449;28;20210;-71
2021/08/29 08:24:08;;;;;;;3.10;2.80;;;15.10;99.90;;;;;;5039659;28;20728;-72
2021/08/29 08:26:35;;;;;;;3.10;2.80;;;15.20;99.90;;;;;;5042812;28;20199;-72
2021/08/29 08:29:02;;;;;;;2.90;2.70;;;15.20;99.90;;;;;;5040123;28;20227;-71
2021/08/29 08:31:29;;;;;;;4.32;2.67;;;15.30;99.90;;;;;;5041468;28;20214;-71
2021/08/29 08:33:56;;;;;;;3.53;2.50;;;15.30;99.90;;;;;;5034612;28;20649;-72
2021/08/29 08:36:22;;;;;;;3.15;2.28;;;15.30;99.90;;;;;;5038532;28;20202;-72
2021/08/29 08:38:51;;;;;;;3.20;2.50;;;15.30;99.90;;;;;;5049013;28;20437;-72
2021/08/29 08:41:19;;;;;;;3.55;2.22;;;15.30;99.90;;;;;;5041222;28;20201;-71
2021/08/29 08:43:46;;;;;;;2.53;2.20;;;15.40;99.90;;;;;;5039846;28;20573;-71
2021/08/29 08:46:13;;;;;;;2.30;2.10;;;15.50;99.90;;;;;;5037480;28;20571;-72
2021/08/29 08:48:41;;;;;;;2.88;2.00;;;15.50;99.90;;;;;;5053340;28;20213;-72
2021/08/29 08:51:09;;;;;;;2.85;2.28;;;15.50;99.90;;;;;;5046813;28;20650;-71
2021/08/29 08:53:38;;;;;;;4.13;2.67;;;15.60;99.90;;;;;;5037072;28;20233;-72
2021/08/29 08:56:06;;;;;;;2.60;2.40;;;15.50;99.90;;;;;;5045760;28;20206;-71
2021/08/29 08:58:40;;;;;;;2.80;2.60;;;15.50;99.90;;;;;;5048331;28;20207;-72
2021/08/29 09:01:08;;;;;;;2.38;2.17;;;15.50;99.90;;;;;;5047691;28;20199;-72
2021/08/29 09:03:35;;;;;;;2.78;2.58;;;15.60;99.90;;;;;;5047597;28;20206;-71
2021/08/29 09:06:04;;;;;;;2.63;2.42;;;15.60;99.90;;;;;;5042369;28;20199;-71
2021/08/29 09:08:30;;;;;;;3.47;2.55;;;15.60;99.90;;;;;;5044673;28;20603;-72
2021/08/29 09:10:57;;;;;;;3.20;2.90;;;15.50;99.90;;;;;;5041566;28;20568;-72
2021/08/29 09:13:26;;;;;;;3.72;3.00;;;15.50;99.90;;;;;;5042026;28;20206;-72
2021/08/29 09:16:13;;;;;;;3.47;2.70;;;15.50;99.90;;;;;;5039079;28;20203;-72
2021/08/29 09:18:47;;;;;;;3.67;3.05;;;15.50;99.90;;;;;;5045189;28;20261;-72
2021/08/29 09:21:19;;;;;;;3.78;2.85;;;15.50;99.90;;;;;;5042965;28;20209;-72
2021/08/29 09:23:46;;;;;;;3.17;2.72;;;15.50;99.90;;;;;;5039351;28;20199;-72
2021/08/29 09:26:14;;;;;;;2.75;2.55;;;15.50;99.90;;;;;;5042544;28;20229;-72
2021/08/29 09:28:42;;;;;;;2.80;2.60;;;15.60;99.90;;;;;;5043943;28;20207;-71
2021/08/29 09:31:09;;;;;;;2.72;2.53;;;15.50;99.90;;;;;;5047808;28;20579;-71
2021/08/29 09:33:36;;;;;;;3.80;3.05;;;15.70;99.90;;;;;;5049240;28;20203;-72
2021/08/29 09:36:04;;;;;;;3.33;2.60;;;15.70;99.90;;;;;;5042516;28;20218;-72
2021/08/29 09:38:38;;;;;;;2.78;2.50;;;15.70;99.90;;;;;;5039163;28;20207;-71
2021/08/29 09:41:05;;;;;;;3.08;2.78;;;15.80;99.90;;;;;;5051349;28;20203;-72
2021/08/29 09:43:36;;;;;;;3.40;3.10;;;15.90;99.90;;;;;;5048457;28;20685;-72
2021/08/29 09:46:08;;;;;;;3.33;2.80;;;15.90;99.90;;;;;;5045178;28;20203;-71
2021/08/29 09:48:35;;;;;;;3.88;2.92;;;16.00;99.90;;;;;;5042075;28;20207;-71
2021/08/29 09:51:02;;;;;;;2.72;2.45;;;15.90;99.90;;;;;;5045201;28;20207;-71
2021/08/29 09:53:43;;;;;;;3.53;3.15;;;15.90;99.90;;;;;;5045538;28;20210;-72
2021/08/29 09:56:20;;;;;;;3.63;3.33;;;16.00;99.90;;;;;;5037332;28;20264;-71
2021/08/29 09:58:48;;;;;;;3.10;2.80;;;16.10;99.90;;;;;;5040382;28;20206;-72
2021/08/29 10:01:17;;;;;;;3.20;2.90;;;16.10;99.90;;;;;;5043047;28;20203;-71
2021/08/29 10:03:46;;;;;;;3.72;2.90;;;16.20;99.90;;;;;;5041719;28;20213;-72
2021/08/29 10:06:18;;;;;;;3.45;3.00;;;16.30;99.90;;;;;;5039887;28;20483;-72
2021/08/29 10:08:46;;;;;;;3.10;2.80;;;16.20;99.90;;;;;;5041345;28;20295;-72
2021/08/29 10:11:14;;;;;;;3.08;2.85;;;16.30;99.90;;;;;;5039745;28;20247;-71
2021/08/29 10:13:42;;;;;;;2.92;2.65;;;16.20;99.90;;;;;;5045579;28;20211;-76
2021/08/29 10:16:10;;;;;;;3.33;2.92;;;16.20;99.90;;;;;;5049476;28;20206;-76
2021/08/29 10:18:40;;;;;;;4.20;3.28;;;16.10;99.90;;;;;;5076519;23;20227;-77
2021/08/29 10:21:09;;;;;;;5.45;3.30;;;16.30;99.90;;;;;;5048822;28;20211;-77
2021/08/29 10:23:38;;;;;;;5.88;3.58;;;16.20;99.90;;;;;;5048287;28;20667;-77
2021/08/29 10:26:06;;;;;;;4.10;3.42;;;16.40;99.90;;;;;;5048506;28;20577;-77
2021/08/29 10:28:38;;;;;;;5.05;3.90;;;16.40;99.90;;;;;;5048927;28;20208;-77
2021/08/29 10:31:11;;;;;;;4.03;3.65;;;16.30;99.90;;;;;;5046605;28;20684;-77
2021/08/29 10:33:47;;;;;;;5.15;4.18;;;16.50;99.90;;;;;;5038030;28;20968;-77
2021/08/29 10:36:16;;;;;;;4.97;3.92;;;16.40;99.90;;;;;;5047616;28;20210;-77
2021/08/29 10:38:43;;;;;;;4.75;3.78;;;16.50;99.90;;;;;;5045870;28;20630;-76
2021/08/29 10:41:10;;;;;;;4.55;4.00;;;16.40;99.90;;;;;;5047206;28;20669;-74
2021/08/29 10:43:39;;;;;;;4.78;3.90;;;16.50;99.90;;;;;;5051307;28;20217;-73
2021/08/29 10:46:08;;;;;;;4.18;3.78;;;16.40;99.90;;;;;;5045002;28;20225;-73
2021/08/29 10:48:37;;;;;;;5.10;3.60;;;16.60;99.90;;;;;;5043769;28;20203;-73
2021/08/29 10:51:07;;;;;;;3.80;3.40;;;16.60;99.90;;;;;;5045269;28;20227;-73
2021/08/29 10:53:36;;;;;;;4.35;3.75;;;16.60;99.90;;;;;;5042711;28;20527;-74
2021/08/29 10:56:34;;;;;;;5.57;4.28;;;16.60;99.90;;;;;;5039529;28;20207;-74
2021/08/29 10:59:28;;;;;;;5.32;3.92;;;16.60;99.90;;;;;;5042896;28;20720;-74
2021/08/29 11:02:10;;;;;;;4.15;3.75;;;16.60;99.90;;;;;;5044493;28;20210;-74
2021/08/29 11:04:50;;;;;;;3.58;3.25;;;16.50;99.90;;;;;;5044194;28;20292;-73
2021/08/29 11:07:50;;;;;;;3.58;3.28;;;16.50;99.90;;;;;;5046166;28;20207;-73
2021/08/29 11:10:45;;;;;;;3.63;3.20;;;16.60;99.90;;;;;;5041375;28;20227;-74
2021/08/29 11:13:34;;;;;;;3.72;3.03;;;16.60;99.90;;;;;;5043770;28;20230;-74
2021/08/29 11:16:22;;;;;;;3.20;2.90;;;16.80;99.90;;;;;;5041197;28;21644;-73
2021/08/29 11:19:11;;;;;;;5.38;3.40;;;16.90;99.90;;;;;;5045008;28;20208;-74
2021/08/29 11:22:22;;;;;;;4.15;3.60;;;17.00;99.90;;;;;;5049932;28;20302;-73
2021/08/29 11:24:57;;;;;;;3.47;3.17;;;17.20;99.90;;;;;;5044267;28;20206;-74
2021/08/29 11:28:04;;;;;;;3.35;3.15;;;17.30;99.90;;;;;;5040003;28;20207;-74
2021/08/29 11:30:45;;;;;;;3.95;3.53;;;17.40;99.90;;;;;;5044682;28;20223;-74
2021/08/29 11:33:14;;;;;;;4.45;3.88;;;17.70;99.90;;;;;;5042082;28;20269;-74
2021/08/29 11:35:47;;;;;;;3.30;3.00;;;17.80;99.90;;;;;;5045775;28;20303;-74
2021/08/29 11:38:17;;;;;;;4.10;3.33;;;18.00;99.90;;;;;;5039793;28;20200;-73
2021/08/29 11:40:59;;;;;;;3.47;3.17;;;18.00;99.90;;;;;;5046687;28;20211;-75
2021/08/29 11:43:41;;;;;;;3.80;3.50;;;18.00;99.90;;;;;;5043008;28;20653;-74
2021/08/29 11:46:12;;;;;;;3.20;2.90;;;17.90;99.90;;;;;;5035080;28;20203;-74
2021/08/29 11:48:49;;;;;;;3.85;2.85;;;17.80;99.90;;;;;;5040104;28;20673;-74
2021/08/29 11:51:24;;;;;;;3.53;3.13;;;17.70;99.90;;;;;;5031825;28;20684;-74
2021/08/29 11:53:51;;;;;;;2.97;2.70;;;17.60;99.90;;;;;;5042661;28;20633;-74
2021/08/29 11:56:18;;;;;;;2.92;2.72;;;17.70;99.90;;;;;;5035274;28;20290;-74
2021/08/29 11:58:49;;;;;;;2.90;2.33;;;17.50;99.90;;;;;;5031857;28;20559;-74
2021/08/29 12:01:17;;;;;;;5.15;2.80;;;17.40;99.90;;;;;;5035858;28;20217;-73
2021/08/29 12:03:45;;;;;;;3.22;2.92;;;17.40;99.90;;;;;;5035383;28;20254;-73
2021/08/29 12:06:20;;;;;;;4.35;2.83;;;17.40;99.90;;;;;;5030573;28;20204;-74
2021/08/29 12:09:23;;;;;;;5.72;3.35;;;17.40;99.90;;;;;;5038493;28;20245;-75
2021/08/29 12:11:51;;;;;;;3.53;3.03;;;17.50;99.90;;;;;;5028103;28;20206;-75
2021/08/29 12:14:23;;;;;;;3.33;2.83;;;17.60;99.90;;;;;;5041934;28;20759;-75
2021/08/29 12:16:52;;;;;;;3.50;3.20;;;17.70;99.90;;;;;;5027430;28;20211;-74
2021/08/29 12:19:21;;;;;;;3.65;3.00;;;17.70;99.90;;;;;;5035725;28;20289;-75
2021/08/29 12:21:49;;;;;;;4.03;3.13;;;17.80;99.90;;;;;;5026507;28;20206;-75
2021/08/29 12:24:24;;;;;;;3.35;2.95;;;17.80;99.90;;;;;;5030217;28;20669;-75
2021/08/29 12:27:00;;;;;;;3.58;3.10;;;18.10;99.90;;;;;;5028223;28;20214;-75
2021/08/29 12:29:29;;;;;;;3.15;2.85;;;18.10;99.90;;;;;;5029942;28;20219;-75
2021/08/29 12:32:07;;;;;;;3.05;2.75;;;18.30;99.90;;;;;;5033306;28;20434;-74
2021/08/29 12:34:34;;;;;;;5.20;2.65;;;18.20;99.90;;;;;;5008485;28;20407;-75
2021/08/29 12:37:03;;;;;;;3.47;3.00;;;18.20;99.90;;;;;;5031569;28;20238;-75
2021/08/29 12:39:30;;;;;;;6.25;4.72;;;18.20;99.90;;;;;;5034074;28;20206;-75
2021/08/29 12:42:14;;;;;;;4.75;4.25;;;18.10;99.90;;;;;;5031926;28;20203;-75
2021/08/29 12:44:43;;;;;;;11.07;7.05;;;18.00;99.90;;;;;;5037696;28;20209;-75
2021/08/29 12:47:10;;;;;;;8.98;6.57;;;17.80;99.90;;;;;;5031443;28;20231;-76
2021/08/29 12:49:38;;;;;;;6.00;4.47;;;17.70;99.90;;;;;;5031993;28;20229;-76
2021/08/29 12:52:08;;;;;;;7.93;5.50;;;17.80;99.90;;;;;;5031629;28;20199;-75
2021/08/29 12:54:35;;;;;;;3.67;3.38;;;17.90;99.90;;;;;;5033755;28;20247;-76
2021/08/29 12:57:05;;;;;;;4.28;3.88;;;17.90;99.90;;;;;;5035781;28;20214;-74